Time;durP1;ratioP1;P1;durP2;ratioP2;P2;SDS_P1;SDS_P2;PMS_P1;PMS_P2;Temp;Humidity;BMP_temperature;BMP_pressure;BME280_temperature;BME280_humidity;BME280_pressure;Samples;Min_cycle;Max_cycle;Signal;HPM_P1;HPM_P2
2021/03/19 00:01:52;;;;;;;5.90;2.40;;;-0.10;78.20;;;;;;5033665;28;20033;-68
2021/03/19 00:04:18;;;;;;;7.33;2.80;;;-0.20;78.20;;;;;;5025941;28;20041;-68
2021/03/19 00:06:43;;;;;;;7.00;2.80;;;-0.20;78.30;;;;;;5028774;28;20402;-68
2021/03/19 00:09:11;;;;;;;6.93;2.70;;;-0.20;78.40;;;;;;5020622;28;20416;-66
2021/03/19 00:11:37;;;;;;;6.57;2.60;;;-0.20;78.50;;;;;;5012150;28;20048;-68
2021/03/19 00:14:05;;;;;;;7.43;2.80;;;-0.20;78.60;;;;;;5020336;28;20091;-68
2021/03/19 00:16:32;;;;;;;7.63;2.57;;;-0.20;78.60;;;;;;5031280;28;20120;-69
2021/03/19 00:18:59;;;;;;;7.37;2.90;;;-0.20;79.30;;;;;;5024816;28;20061;-68
2021/03/19 00:21:24;;;;;;;6.77;2.70;;;-0.20;78.90;;;;;;5029581;28;20096;-67
2021/03/19 00:23:50;;;;;;;10.23;2.70;;;-0.30;79.10;;;;;;5031389;28;20489;-69
2021/03/19 00:26:16;;;;;;;5.57;2.37;;;-0.20;79.40;;;;;;5034014;28;20057;-67
2021/03/19 00:28:42;;;;;;;6.63;2.40;;;-0.20;79.60;;;;;;5041881;28;20068;-66
2021/03/19 00:31:07;;;;;;;6.40;2.70;;;-0.20;79.60;;;;;;5043114;28;20512;-67
2021/03/19 00:33:34;;;;;;;9.00;2.90;;;-0.20;79.60;;;;;;5020374;28;20409;-65
2021/03/19 00:35:59;;;;;;;6.43;2.77;;;-0.30;79.60;;;;;;5027213;28;20045;-65
2021/03/19 00:38:25;;;;;;;10.97;3.00;;;-0.20;79.80;;;;;;5014743;28;20053;-66
2021/03/19 00:40:51;;;;;;;8.00;3.00;;;-0.30;79.80;;;;;;5033050;28;20034;-65
2021/03/19 00:43:17;;;;;;;6.80;2.60;;;-0.30;80.00;;;;;;5021964;28;20034;-65
2021/03/19 00:45:44;;;;;;;6.77;2.47;;;-0.30;80.20;;;;;;5014436;28;20088;-65
2021/03/19 00:48:11;;;;;;;6.37;2.50;;;-0.30;80.30;;;;;;5029802;28;20782;-65
2021/03/19 00:50:39;;;;;;;6.77;2.60;;;-0.30;80.30;;;;;;5030698;28;20432;-65
2021/03/19 00:53:05;;;;;;;6.03;2.50;;;-0.30;80.40;;;;;;5021489;28;20048;-65
2021/03/19 00:55:31;;;;;;;7.67;2.47;;;-0.30;80.40;;;;;;5024215;28;20049;-65
2021/03/19 00:57:57;;;;;;;6.47;2.47;;;-0.30;80.40;;;;;;5029169;28;20030;-65
2021/03/19 01:00:26;;;;;;;7.43;2.60;;;-0.30;80.50;;;;;;5020004;28;20034;-65
2021/03/19 01:02:51;;;;;;;8.00;2.63;;;-0.40;80.50;;;;;;5028405;28;20042;-65
2021/03/19 01:05:26;;;;;;;7.50;2.73;;;-0.40;80.60;;;;;;5018953;28;20037;-65
2021/03/19 01:07:52;;;;;;;6.87;2.50;;;-0.40;80.80;;;;;;5033319;28;20037;-65
2021/03/19 01:10:27;;;;;;;7.10;2.70;;;-0.40;80.90;;;;;;5029917;28;20131;-65
2021/03/19 01:12:53;;;;;;;7.43;2.47;;;-0.40;80.90;;;;;;5013668;28;20038;-65
2021/03/19 01:15:19;;;;;;;6.33;2.90;;;-0.50;81.00;;;;;;5014560;28;20052;-65
2021/03/19 01:17:45;;;;;;;7.97;2.87;;;-0.50;81.30;;;;;;5018033;28;20391;-65
2021/03/19 01:20:13;;;;;;;7.80;2.67;;;-0.50;81.40;;;;;;5032531;28;20047;-65
2021/03/19 01:22:39;;;;;;;6.73;2.87;;;-0.50;81.30;;;;;;5027359;28;20062;-65
2021/03/19 01:25:07;;;;;;;7.43;3.20;;;-0.50;81.30;;;;;;5043190;28;20449;-65
2021/03/19 01:27:32;;;;;;;9.57;3.20;;;-0.50;81.30;;;;;;5042007;28;20064;-65
2021/03/19 01:29:58;;;;;;;5.27;2.60;;;-0.60;81.50;;;;;;5046003;28;20072;-65
2021/03/19 01:32:23;;;;;;;8.37;2.90;;;-0.60;81.60;;;;;;5032684;28;20046;-67
2021/03/19 01:34:49;;;;;;;8.27;3.20;;;-0.60;81.60;;;;;;5037994;28;20041;-65
2021/03/19 01:37:15;;;;;;;9.17;3.10;;;-0.60;81.60;;;;;;5022752;28;20038;-65
2021/03/19 01:39:40;;;;;;;8.20;3.07;;;-0.70;81.70;;;;;;5012784;28;20044;-67
2021/03/19 01:42:10;;;;;;;7.13;2.73;;;-0.70;81.70;;;;;;5022748;28;20045;-65
2021/03/19 01:44:55;;;;;;;6.70;3.10;;;-0.70;81.80;;;;;;5027611;28;20049;-66
2021/03/19 01:47:58;;;;;;;7.37;3.10;;;-0.70;82.00;;;;;;5019954;28;20521;-65
2021/03/19 01:51:01;;;;;;;9.53;3.33;;;-0.70;82.30;;;;;;5031753;28;20045;-65
2021/03/19 01:54:04;;;;;;;7.30;3.17;;;-0.70;82.40;;;;;;5031899;28;20041;-65
2021/03/19 01:57:08;;;;;;;8.03;3.00;;;-0.80;82.30;;;;;;5018315;28;20041;-65
2021/03/19 02:00:11;;;;;;;8.40;3.80;;;-0.80;82.40;;;;;;5027309;28;20045;-65
2021/03/19 02:03:14;;;;;;;6.20;3.00;;;-0.80;82.60;;;;;;5016517;28;20067;-65
2021/03/19 02:06:17;;;;;;;9.13;3.23;;;-0.90;82.60;;;;;;5010765;28;20065;-65
2021/03/19 02:09:20;;;;;;;9.50;3.20;;;-0.90;82.70;;;;;;5011476;28;20092;-65
2021/03/19 02:12:23;;;;;;;8.27;3.27;;;-0.90;82.90;;;;;;5017965;28;20036;-66
2021/03/19 02:15:26;;;;;;;8.47;3.20;;;-0.90;83.20;;;;;;5031295;28;20125;-65
2021/03/19 02:18:30;;;;;;;7.57;3.10;;;-0.90;83.20;;;;;;5018556;28;20398;-65
2021/03/19 02:21:33;;;;;;;7.50;3.10;;;-0.90;83.30;;;;;;5022408;28;20383;-67
2021/03/19 02:24:39;;;;;;;9.00;2.97;;;-0.90;83.30;;;;;;5011524;28;20490;-65
2021/03/19 02:27:42;;;;;;;7.37;3.43;;;-0.90;83.30;;;;;;5015892;28;20453;-65
2021/03/19 02:30:46;;;;;;;8.70;3.10;;;-0.90;83.40;;;;;;5025303;28;20042;-65
2021/03/19 02:33:11;;;;;;;9.50;3.37;;;-1.00;83.40;;;;;;5035523;28;20038;-65
2021/03/19 02:35:52;;;;;;;9.30;3.40;;;-1.00;83.50;;;;;;5038529;28;20452;-67
2021/03/19 02:38:18;;;;;;;11.40;3.80;;;-1.00;83.60;;;;;;5029722;28;20041;-65
2021/03/19 02:40:44;;;;;;;8.23;3.97;;;-1.00;83.80;;;;;;5019847;28;20564;-66
2021/03/19 02:43:09;;;;;;;10.97;3.70;;;-1.00;83.80;;;;;;5028701;28;20112;-67
2021/03/19 02:45:35;;;;;;;10.63;4.43;;;-1.00;83.90;;;;;;5015136;28;20037;-63
2021/03/19 02:48:01;;;;;;;7.07;3.40;;;-1.00;84.10;;;;;;5011757;28;20455;-62
2021/03/19 02:50:26;;;;;;;8.33;3.60;;;-1.00;84.20;;;;;;5022275;28;20076;-63
2021/03/19 02:52:52;;;;;;;6.27;2.90;;;-1.10;84.20;;;;;;5012895;28;20033;-63
2021/03/19 02:55:18;;;;;;;8.73;3.27;;;-1.10;84.10;;;;;;5011530;28;20034;-63
2021/03/19 02:57:44;;;;;;;13.77;3.70;;;-1.10;84.20;;;;;;5022086;28;20056;-63
2021/03/19 03:00:14;;;;;;;7.07;3.17;;;-1.10;84.30;;;;;;5024337;28;20513;-64
2021/03/19 03:02:39;;;;;;;7.30;3.23;;;-1.10;84.40;;;;;;5016044;28;20521;-62
2021/03/19 03:05:06;;;;;;;8.00;3.73;;;-1.10;84.50;;;;;;5010135;28;20269;-62
2021/03/19 03:07:32;;;;;;;9.40;3.30;;;-1.10;84.50;;;;;;5025943;28;20118;-63
2021/03/19 03:09:58;;;;;;;9.47;4.00;;;-1.20;84.60;;;;;;5012834;28;20088;-63
2021/03/19 03:12:24;;;;;;;11.93;4.53;;;-1.20;84.70;;;;;;5011073;28;20065;-63
2021/03/19 03:14:50;;;;;;;8.27;3.73;;;-1.20;84.90;;;;;;5027668;28;20034;-64
2021/03/19 03:17:16;;;;;;;9.17;4.53;;;-1.20;85.00;;;;;;5019814;28;20081;-63
2021/03/19 03:19:42;;;;;;;13.20;5.23;;;-1.20;85.20;;;;;;5011330;28;20506;-64
2021/03/19 03:22:08;;;;;;;11.23;4.20;;;-1.20;85.30;;;;;;5023280;28;20042;-64
2021/03/19 03:24:34;;;;;;;11.07;4.10;;;-1.20;85.20;;;;;;5017792;28;20037;-64
2021/03/19 03:27:00;;;;;;;7.73;3.67;;;-1.20;85.30;;;;;;5030041;28;20102;-65
2021/03/19 03:29:26;;;;;;;8.53;3.93;;;-1.20;85.40;;;;;;5041858;28;20037;-63
2021/03/19 03:31:54;;;;;;;12.57;4.20;;;-1.20;85.50;;;;;;5036859;28;20033;-65
2021/03/19 03:34:19;;;;;;;10.00;4.50;;;-1.20;85.70;;;;;;5034610;28;20119;-64
2021/03/19 03:36:45;;;;;;;10.67;4.50;;;-1.20;85.80;;;;;;5046787;28;20116;-62
2021/03/19 03:39:18;;;;;;;9.23;4.80;;;-1.20;85.90;;;;;;5040444;28;20547;-65
2021/03/19 03:41:44;;;;;;;13.87;5.70;;;-1.20;86.00;;;;;;5038600;28;20047;-63
2021/03/19 03:44:13;;;;;;;10.93;5.53;;;-1.20;86.00;;;;;;5048134;28;20041;-65
2021/03/19 03:46:40;;;;;;;11.33;4.80;;;-1.20;85.90;;;;;;5036737;28;20564;-66
2021/03/19 03:49:06;;;;;;;13.57;5.50;;;-1.20;85.80;;;;;;5037378;28;20537;-62
2021/03/19 03:51:32;;;;;;;12.37;4.80;;;-1.20;85.90;;;;;;5024300;28;20050;-62
2021/03/19 03:53:58;;;;;;;12.27;4.73;;;-1.20;85.90;;;;;;5016149;28;20126;-67
2021/03/19 03:56:26;;;;;;;11.07;4.90;;;-1.20;86.00;;;;;;5035520;28;20037;-67
2021/03/19 03:58:52;;;;;;;10.50;4.40;;;-1.20;86.20;;;;;;5022758;28;20037;-69
2021/03/19 04:01:18;;;;;;;8.50;4.13;;;-1.30;86.10;;;;;;5028492;28;20095;-67
2021/03/19 04:03:44;;;;;;;9.27;4.60;;;-1.30;86.10;;;;;;5026315;28;20037;-67
2021/03/19 04:06:10;;;;;;;11.30;4.50;;;-1.20;86.20;;;;;;5023113;28;20120;-67
2021/03/19 04:08:37;;;;;;;12.57;4.60;;;-1.30;86.10;;;;;;5024124;28;20045;-68
2021/03/19 04:11:07;;;;;;;12.83;4.23;;;-1.30;86.30;;;;;;5022220;28;20041;-68
2021/03/19 04:13:33;;;;;;;9.93;5.07;;;-1.30;86.90;;;;;;5017297;28;20084;-67
2021/03/19 04:15:59;;;;;;;11.73;5.17;;;-1.20;87.00;;;;;;5027143;28;20382;-68
2021/03/19 04:18:27;;;;;;;11.13;4.30;;;-1.20;87.20;;;;;;5023761;28;20041;-69
2021/03/19 04:20:55;;;;;;;11.13;4.80;;;-1.20;87.30;;;;;;5026060;28;20385;-68
2021/03/19 04:23:23;;;;;;;9.40;4.30;;;-1.10;87.30;;;;;;5032907;28;20102;-68
2021/03/19 04:25:49;;;;;;;10.30;4.63;;;-1.10;87.50;;;;;;5017248;28;20125;-69
2021/03/19 04:28:18;;;;;;;10.77;4.83;;;-1.00;87.80;;;;;;5032660;28;20168;-67
2021/03/19 04:30:44;;;;;;;10.40;4.83;;;-0.90;88.00;;;;;;5025299;28;20481;-67
2021/03/19 04:33:20;;;;;;;11.13;4.87;;;-0.90;88.10;;;;;;5042884;28;20103;-69
2021/03/19 04:36:19;;;;;;;12.17;4.90;;;-0.80;87.90;;;;;;5039167;28;20428;-68
2021/03/19 04:38:45;;;;;;;10.27;5.23;;;-0.70;87.70;;;;;;5035772;28;20551;-70
2021/03/19 04:41:12;;;;;;;12.43;5.70;;;-0.70;87.40;;;;;;5047686;28;20123;-69
2021/03/19 04:43:37;;;;;;;11.63;5.80;;;-0.70;87.30;;;;;;5050253;28;20041;-68
2021/03/19 04:46:03;;;;;;;13.53;5.83;;;-0.70;87.20;;;;;;5019609;28;20040;-68
2021/03/19 04:48:29;;;;;;;10.80;6.10;;;-0.80;87.10;;;;;;5034601;28;20402;-69
2021/03/19 04:50:55;;;;;;;10.83;5.50;;;-0.80;87.10;;;;;;5027867;28;20041;-67
2021/03/19 04:53:20;;;;;;;11.97;5.70;;;-0.80;87.20;;;;;;5015461;28;20038;-69
2021/03/19 04:55:46;;;;;;;14.17;5.83;;;-0.80;87.20;;;;;;5023018;28;20037;-70
2021/03/19 04:58:11;;;;;;;13.33;5.40;;;-0.90;87.30;;;;;;5032051;28;20387;-70
2021/03/19 05:00:37;;;;;;;13.80;5.33;;;-0.90;87.50;;;;;;5015266;28;20057;-68
2021/03/19 05:03:03;;;;;;;13.57;6.60;;;-0.90;87.60;;;;;;5017710;28;20034;-67
2021/03/19 05:05:32;;;;;;;14.20;6.17;;;-0.90;87.80;;;;;;5033188;28;20041;-70
2021/03/19 05:07:59;;;;;;;15.33;7.53;;;-0.90;87.90;;;;;;5024405;28;20030;-67
2021/03/19 05:10:27;;;;;;;15.87;8.53;;;-0.90;87.90;;;;;;5018931;28;20091;-68
2021/03/19 05:12:54;;;;;;;17.63;8.87;;;-0.90;88.10;;;;;;5037246;28;20025;-69
2021/03/19 05:15:22;;;;;;;16.70;8.10;;;-0.80;88.30;;;;;;5033695;28;20026;-68
2021/03/19 05:17:47;;;;;;;16.50;8.33;;;-0.80;88.40;;;;;;5031105;28;20086;-67
2021/03/19 05:20:15;;;;;;;17.90;9.47;;;-0.80;88.50;;;;;;5035362;28;20045;-67
2021/03/19 05:22:41;;;;;;;16.73;8.90;;;-0.80;88.60;;;;;;5032051;28;20041;-67
2021/03/19 05:25:11;;;;;;;16.40;9.03;;;-0.70;88.80;;;;;;5046934;28;20033;-70
2021/03/19 05:27:37;;;;;;;15.55;8.48;;;-0.70;89.00;;;;;;5029562;28;20029;-67
2021/03/19 05:30:05;;;;;;;15.50;8.40;;;-0.60;89.10;;;;;;5039062;28;20452;-67
2021/03/19 05:32:30;;;;;;;15.70;8.03;;;-0.60;89.20;;;;;;5040437;28;20060;-70
2021/03/19 05:34:56;;;;;;;13.33;8.20;;;-0.50;89.40;;;;;;5050671;28;20485;-69
2021/03/19 05:37:22;;;;;;;13.37;7.53;;;-0.40;89.60;;;;;;5043887;28;20037;-70
2021/03/19 05:39:48;;;;;;;13.97;8.00;;;-0.30;89.70;;;;;;5043154;28;20041;-68
2021/03/19 05:42:24;;;;;;;14.23;7.37;;;-0.30;89.80;;;;;;5024205;28;20038;-68
2021/03/19 05:44:59;;;;;;;13.47;6.73;;;-0.20;89.80;;;;;;5035592;28;20048;-70
2021/03/19 05:47:25;;;;;;;13.10;5.67;;;-0.10;89.80;;;;;;5042437;28;20547;-68
2021/03/19 05:49:57;;;;;;;13.20;6.53;;;0.00;89.70;;;;;;5044121;28;20428;-69
2021/03/19 05:52:28;;;;;;;13.50;7.30;;;0.00;89.80;;;;;;5010571;28;20440;-68
2021/03/19 05:54:55;;;;;;;16.48;8.38;;;0.10;89.90;;;;;;5030103;28;20378;-69
2021/03/19 05:57:32;;;;;;;16.20;9.83;;;0.20;90.00;;;;;;5042779;28;20041;-69
2021/03/19 06:00:00;;;;;;;16.37;9.20;;;0.30;90.10;;;;;;5044810;28;20401;-70
2021/03/19 06:02:38;;;;;;;16.23;9.57;;;0.40;90.20;;;;;;5032966;28;20046;-69
2021/03/19 06:05:13;;;;;;;18.10;9.23;;;0.50;90.20;;;;;;5027132;28;20060;-69
2021/03/19 06:07:44;;;;;;;17.73;8.57;;;0.60;90.30;;;;;;5033004;28;20033;-67
2021/03/19 06:10:21;;;;;;;17.98;8.57;;;0.80;90.30;;;;;;5037521;28;20482;-67
2021/03/19 06:13:06;;;;;;;15.10;8.20;;;0.90;90.20;;;;;;5036909;28;20030;-69
2021/03/19 06:15:38;;;;;;;16.43;8.40;;;1.00;90.20;;;;;;5039300;28;20124;-70
2021/03/19 06:18:35;;;;;;;15.13;8.70;;;1.20;90.30;;;;;;5039523;28;20059;-67
2021/03/19 06:21:26;;;;;;;14.23;7.87;;;1.30;90.40;;;;;;5028116;28;20160;-67
2021/03/19 06:24:00;;;;;;;;;;;1.50;90.40;;;;;;5029559;28;20095;-67
2021/03/19 06:26:34;;;;;;;13.80;7.60;;;1.60;90.50;;;;;;5050814;28;20423;-67
2021/03/19 06:29:26;;;;;;;14.10;7.40;;;1.80;90.60;;;;;;5051783;28;20048;-68
2021/03/19 06:32:13;;;;;;;16.47;8.40;;;2.00;90.50;;;;;;5031989;28;20048;-68
2021/03/19 06:35:06;;;;;;;13.97;7.17;;;2.20;90.40;;;;;;5041486;28;20068;-68
2021/03/19 06:37:43;;;;;;;13.83;7.10;;;2.40;90.30;;;;;;5060081;28;20086;-68
2021/03/19 06:40:34;;;;;;;14.77;7.40;;;2.50;90.10;;;;;;5070180;28;20032;-68
2021/03/19 06:43:18;;;;;;;13.97;7.23;;;2.70;90.20;;;;;;5069883;28;20047;-69
2021/03/19 06:45:46;;;;;;;11.90;6.90;;;2.90;90.30;;;;;;5071200;28;20131;-68
2021/03/19 06:48:35;;;;;;;13.10;7.23;;;2.90;90.10;;;;;;5052910;28;20044;-69
2021/03/19 06:51:01;;;;;;;16.20;10.33;;;3.00;89.90;;;;;;5052171;28;20047;-70
2021/03/19 06:53:32;;;;;;;19.03;11.67;;;3.10;89.60;;;;;;5070931;28;20029;-67
2021/03/19 06:56:23;;;;;;;17.80;9.83;;;3.20;89.80;;;;;;5053387;28;20040;-69
2021/03/19 06:58:49;;;;;;;17.55;10.30;;;3.30;89.30;;;;;;5073236;28;20044;-66
2021/03/19 07:01:48;;;;;;;13.87;7.80;;;3.40;89.60;;;;;;5070288;28;20027;-68
2021/03/19 07:04:51;;;;;;;12.37;6.53;;;3.70;90.20;;;;;;5015168;28;20090;-66
2021/03/19 07:07:40;;;;;;;11.77;5.60;;;4.00;90.70;;;;;;5069876;28;20040;-66
2021/03/19 07:10:44;;;;;;;13.53;6.03;;;4.60;90.80;;;;;;5069823;28;20052;-65
2021/03/19 07:13:39;;;;;;;14.13;5.93;;;5.00;90.00;;;;;;5052688;28;20508;-65
2021/03/19 07:16:17;;;;;;;12.33;6.03;;;5.10;88.40;;;;;;5070783;28;20036;-65
2021/03/19 07:19:02;;;;;;;13.20;5.90;;;5.40;88.40;;;;;;5070546;28;20040;-65
2021/03/19 07:21:51;;;;;;;12.23;6.73;;;5.60;88.80;;;;;;5052146;28;20037;-66
2021/03/19 07:24:29;;;;;;;12.40;6.53;;;6.30;90.20;;;;;;5070249;28;20397;-66
2021/03/19 07:27:21;;;;;;;9.90;5.40;;;7.40;90.60;;;;;;5070610;28;20560;-67
2021/03/19 07:30:14;;;;;;;9.60;5.10;;;8.00;88.20;;;;;;5070121;28;20048;-66
2021/03/19 07:32:51;;;;;;;9.80;5.30;;;7.90;83.50;;;;;;5069937;28;20044;-66
2021/03/19 07:35:33;;;;;;;12.87;5.63;;;7.50;81.60;;;;;;5070486;28;20461;-64
2021/03/19 07:38:24;;;;;;;22.40;11.73;;;7.30;82.50;;;;;;5070150;28;20055;-63
2021/03/19 07:41:18;;;;;;;16.00;8.40;;;7.30;81.80;;;;;;5070053;28;20037;-64
2021/03/19 07:44:05;;;;;;;12.37;5.80;;;7.20;81.20;;;;;;5062159;28;20044;-63
2021/03/19 07:46:34;;;;;;;12.60;5.83;;;8.00;86.80;;;;;;5070072;28;20029;-64
2021/03/19 07:49:05;;;;;;;9.77;5.00;;;9.80;90.30;;;;;;5070430;28;20123;-64
2021/03/19 07:51:51;;;;;;;9.82;4.55;;;11.90;89.50;;;;;;5069377;28;20554;-64
2021/03/19 07:54:45;;;;;;;9.27;4.15;;;14.20;86.40;;;;;;5070178;28;20033;-65
2021/03/19 07:57:18;;;;;;;9.13;4.32;;;16.40;79.50;;;;;;5070374;28;20087;-64
2021/03/19 08:00:03;;;;;;;8.70;4.05;;;17.90;72.80;;;;;;5070233;28;20110;-66
2021/03/19 08:03:07;;;;;;;7.20;3.42;;;18.80;67.80;;;;;;5069628;28;20044;-65
2021/03/19 08:05:47;;;;;;;8.80;4.32;;;18.00;60.60;;;;;;5070089;28;20040;-65
2021/03/19 08:08:14;;;;;;;8.65;3.92;;;16.30;59.00;;;;;;5053718;28;20186;-65
2021/03/19 08:10:54;;;;;;;11.80;3.95;;;15.00;59.40;;;;;;5055357;28;20480;-65
2021/03/19 08:13:26;;;;;;;9.80;3.88;;;14.30;60.80;;;;;;5054948;28;20035;-66
2021/03/19 08:16:15;;;;;;;10.00;4.20;;;14.10;61.00;;;;;;5036793;28;20481;-65
2021/03/19 08:19:04;;;;;;;7.78;3.80;;;13.60;59.50;;;;;;5006055;28;20045;-66
2021/03/19 08:21:58;;;;;;;8.80;4.32;;;13.00;58.40;;;;;;5050629;28;20041;-67
2021/03/19 08:24:38;;;;;;;12.85;8.07;;;12.80;60.10;;;;;;5053239;28;20442;-64
2021/03/19 08:27:12;;;;;;;8.68;4.05;;;12.70;59.80;;;;;;5050678;28;20040;-64
2021/03/19 08:29:50;;;;;;;8.77;3.58;;;13.00;60.40;;;;;;5035016;28;20159;-66
2021/03/19 08:32:28;;;;;;;9.80;3.78;;;13.70;59.10;;;;;;5052025;28;20036;-64
2021/03/19 08:35:19;;;;;;;8.45;3.33;;;14.10;57.90;;;;;;5034886;28;20041;-66
2021/03/19 08:38:00;;;;;;;9.35;3.10;;;14.40;56.90;;;;;;5052488;28;20044;-63
2021/03/19 08:40:39;;;;;;;9.82;3.10;;;14.50;55.40;;;;;;5051835;28;20110;-65
2021/03/19 08:43:14;;;;;;;6.75;2.85;;;15.50;58.40;;;;;;5033802;22;20035;-59
2021/03/19 08:45:40;;;;;;;6.07;2.53;;;16.70;55.20;;;;;;5031332;28;20029;-59
2021/03/19 08:48:13;;;;;;;5.15;2.13;;;17.20;53.60;;;;;;5014529;28;20029;-59
2021/03/19 08:50:43;;;;;;;6.03;1.98;;;17.50;51.60;;;;;;5031183;28;20412;-59
2021/03/19 08:53:24;;;;;;;5.28;2.03;;;18.30;52.00;;;;;;5017184;28;20037;-59
2021/03/19 08:56:05;;;;;;;7.47;2.83;;;18.80;48.90;;;;;;5051366;28;20124;-60
2021/03/19 08:58:36;;;;;;;5.70;1.80;;;20.00;48.50;;;;;;5051997;28;20091;-59
2021/03/19 09:01:06;;;;;;;4.70;1.75;;;21.20;46.20;;;;;;5049060;28;20036;-59
2021/03/19 09:03:42;;;;;;;5.18;2.08;;;21.90;45.40;;;;;;5049929;28;20037;-59
2021/03/19 09:06:37;;;;;;;3.70;1.42;;;22.20;42.40;;;;;;5050911;28;20045;-60
2021/03/19 09:09:37;;;;;;;5.53;1.80;;;21.10;39.30;;;;;;5034151;28;20046;-59
2021/03/19 09:12:06;;;;;;;3.83;1.45;;;18.50;38.30;;;;;;5048709;28;20028;-60
2021/03/19 09:14:42;;;;;;;4.88;1.70;;;18.30;44.30;;;;;;5031384;28;20040;-59
2021/03/19 09:17:21;;;;;;;3.78;1.50;;;19.70;43.70;;;;;;5031446;28;20029;-61
2021/03/19 09:19:59;;;;;;;4.38;1.50;;;19.30;39.00;;;;;;5031398;28;20053;-61
2021/03/19 09:22:31;;;;;;;5.43;1.55;;;19.40;41.40;;;;;;5013088;28;20034;-62
2021/03/19 09:25:13;;;;;;;3.85;1.38;;;20.60;40.70;;;;;;5031790;28;20029;-64
2021/03/19 09:27:46;;;;;;;6.38;2.03;;;22.30;40.10;;;;;;5030921;28;22125;-62
2021/03/19 09:30:21;;;;;;;4.50;1.60;;;22.50;37.40;;;;;;5031191;28;20042;-61
2021/03/19 09:32:53;;;;;;;3.75;1.60;;;21.80;36.80;;;;;;5012892;28;20034;-62
2021/03/19 09:35:38;;;;;;;4.28;1.30;;;21.20;37.00;;;;;;4997102;28;20454;-61
2021/03/19 09:38:22;;;;;;;2.60;1.20;;;20.30;35.50;;;;;;5030840;28;20057;-61
2021/03/19 09:40:54;;;;;;;3.58;1.05;;;19.50;37.30;;;;;;5029969;28;20041;-62
2021/03/19 09:43:32;;;;;;;2.65;1.20;;;19.70;37.80;;;;;;5030915;28;20052;-59
2021/03/19 09:46:12;;;;;;;2.63;0.90;;;19.80;37.80;;;;;;5030625;28;20595;-58
2021/03/19 09:48:38;;;;;;;4.47;1.40;;;19.70;35.70;;;;;;5010224;28;20131;-58
2021/03/19 09:51:14;;;;;;;3.63;1.08;;;19.30;35.60;;;;;;5002546;28;20037;-58
2021/03/19 09:53:40;;;;;;;2.47;1.02;;;18.90;36.60;;;;;;5030974;28;20120;-59
2021/03/19 09:56:20;;;;;;;4.65;1.15;;;20.50;39.70;;;;;;5030550;28;20506;-59
2021/03/19 09:58:48;;;;;;;2.72;1.25;;;23.10;37.70;;;;;;5030807;28;20429;-59
2021/03/19 10:01:26;;;;;;;2.45;0.88;;;22.50;33.10;;;;;;5029875;28;20038;-58
2021/03/19 10:03:59;;;;;;;3.10;1.30;;;20.30;31.60;;;;;;5030740;28;20029;-58
2021/03/19 10:06:36;;;;;;;3.13;1.00;;;17.80;32.30;;;;;;5030703;28;20116;-58
2021/03/19 10:09:21;;;;;;;4.53;0.90;;;16.10;35.90;;;;;;5013003;28;20128;-59
2021/03/19 10:11:56;;;;;;;2.17;0.80;;;17.60;40.40;;;;;;5029850;28;20037;-59
2021/03/19 10:14:31;;;;;;;2.05;0.90;;;20.90;39.20;;;;;;5030403;28;20654;-59
2021/03/19 10:17:25;;;;;;;2.95;0.70;;;22.50;34.10;;;;;;5012215;28;20026;-59
2021/03/19 10:20:11;;;;;;;3.10;0.80;;;23.80;32.60;;;;;;5027327;28;20195;-59
2021/03/19 10:22:41;;;;;;;1.50;0.70;;;24.20;30.40;;;;;;5029408;28;20099;-61
2021/03/19 10:25:19;;;;;;;2.55;0.80;;;24.80;30.40;;;;;;5013014;28;20041;-61
2021/03/19 10:27:47;;;;;;;2.25;0.60;;;26.10;29.40;;;;;;5030374;28;20452;-61
2021/03/19 10:30:39;;;;;;;1.92;0.60;;;26.60;29.10;;;;;;5028973;28;20041;-61
2021/03/19 10:33:17;;;;;;;2.70;0.80;;;24.70;26.90;;;;;;5020060;28;20030;-59
2021/03/19 10:36:02;;;;;;;1.67;0.70;;;21.70;27.10;;;;;;5045517;28;20443;-58
2021/03/19 10:38:37;;;;;;;2.63;0.80;;;18.80;28.10;;;;;;5032073;28;20037;-60
2021/03/19 10:41:32;;;;;;;3.20;0.80;;;16.30;29.60;;;;;;5031954;28;20488;-60
2021/03/19 10:44:22;;;;;;;3.15;0.98;;;14.60;33.30;;;;;;5049715;28;20037;-57
2021/03/19 10:46:55;;;;;;;4.55;0.90;;;14.10;35.50;;;;;;5049960;28;20047;-58
2021/03/19 10:49:39;;;;;;;4.22;1.00;;;14.30;37.40;;;;;;5050041;28;20115;-58
2021/03/19 10:52:24;;;;;;;3.10;0.90;;;15.10;37.60;;;;;;5048856;28;20430;-58
2021/03/19 10:54:53;;;;;;;3.78;1.00;;;15.80;37.30;;;;;;5049875;28;20558;-58
2021/03/19 10:57:26;;;;;;;3.13;0.90;;;16.70;37.50;;;;;;5049410;28;20127;-59
2021/03/19 10:59:53;;;;;;;1.70;0.70;;;16.70;35.20;;;;;;5049946;28;20420;-58
2021/03/19 11:02:23;;;;;;;3.40;0.80;;;15.90;34.40;;;;;;5031407;28;20033;-58
2021/03/19 11:04:56;;;;;;;4.05;0.90;;;15.10;35.40;;;;;;5016248;28;20060;-58
2021/03/19 11:07:27;;;;;;;4.07;1.00;;;15.10;37.10;;;;;;5049538;28;20045;-58
2021/03/19 11:10:12;;;;;;;3.63;0.80;;;15.60;37.30;;;;;;5049577;28;20041;-58
2021/03/19 11:12:46;;;;;;;2.92;0.77;;;15.70;36.20;;;;;;5049634;28;20045;-58
2021/03/19 11:15:14;;;;;;;7.07;1.52;;;15.50;35.80;;;;;;5049828;28;20033;-58
2021/03/19 11:17:40;;;;;;;5.45;1.10;;;15.10;35.10;;;;;;5049356;28;20029;-58
2021/03/19 11:20:33;;;;;;;4.18;1.20;;;14.30;35.30;;;;;;5049189;28;20041;-58
2021/03/19 11:22:59;;;;;;;3.67;1.10;;;13.50;36.80;;;;;;5031601;28;20041;-58
2021/03/19 11:25:48;;;;;;;2.65;0.90;;;12.80;37.30;;;;;;5049389;28;20043;-58
2021/03/19 11:28:20;;;;;;;2.88;1.08;;;12.40;38.10;;;;;;5049177;28;20041;-58
2021/03/19 11:30:46;;;;;;;2.72;1.00;;;12.20;39.60;;;;;;5031170;28;20041;-58
2021/03/19 11:33:17;;;;;;;5.22;1.50;;;12.00;39.00;;;;;;5049247;28;20033;-58
2021/03/19 11:36:03;;;;;;;4.68;1.23;;;11.70;39.20;;;;;;5048651;28;20079;-58
2021/03/19 11:38:37;;;;;;;7.93;1.30;;;11.20;39.90;;;;;;5048334;28;20044;-58
2021/03/19 11:41:27;;;;;;;6.53;1.52;;;11.00;41.70;;;;;;5049629;28;20041;-58
2021/03/19 11:43:53;;;;;;;3.22;1.05;;;11.30;43.20;;;;;;5035579;28;20112;-58
2021/03/19 11:46:21;;;;;;;4.00;1.23;;;11.90;42.20;;;;;;5053534;28;20116;-58
2021/03/19 11:48:48;;;;;;;4.22;1.02;;;12.30;41.30;;;;;;5053081;28;20044;-58
2021/03/19 11:51:30;;;;;;;3.92;1.10;;;12.90;41.70;;;;;;5052810;28;20036;-58
2021/03/19 11:54:00;;;;;;;4.45;1.30;;;13.50;40.60;;;;;;5053176;28;20041;-58
2021/03/19 11:56:29;;;;;;;4.30;1.25;;;13.60;38.90;;;;;;5035959;28;20428;-58
2021/03/19 11:58:56;;;;;;;4.05;1.40;;;13.40;38.60;;;;;;5035839;28;20057;-57
2021/03/19 12:01:23;;;;;;;3.95;1.33;;;13.00;38.00;;;;;;5052915;28;20064;-57
2021/03/19 12:03:51;;;;;;;4.97;1.40;;;12.30;38.40;;;;;;5054043;28;20052;-57
2021/03/19 12:06:23;;;;;;;4.70;1.40;;;12.00;39.50;;;;;;5036185;28;20049;-58
2021/03/19 12:08:49;;;;;;;7.13;1.60;;;11.80;40.40;;;;;;5054329;28;20447;-58
2021/03/19 12:11:33;;;;;;;6.85;1.48;;;11.70;41.30;;;;;;5035227;28;20025;-58
2021/03/19 12:13:59;;;;;;;8.07;1.40;;;12.00;41.30;;;;;;5053163;28;20033;-60
2021/03/19 12:16:26;;;;;;;3.22;1.23;;;12.40;41.40;;;;;;5034973;28;20401;-58
2021/03/19 12:18:52;;;;;;;5.03;1.20;;;12.80;40.30;;;;;;5036130;28;20493;-58
2021/03/19 12:21:19;;;;;;;2.95;0.98;;;13.40;41.10;;;;;;5035580;28;20127;-58
2021/03/19 12:23:45;;;;;;;2.35;1.10;;;13.80;39.60;;;;;;5053783;28;20039;-58
2021/03/19 12:26:11;;;;;;;5.78;1.30;;;13.60;38.60;;;;;;5053747;28;20115;-66
2021/03/19 12:28:36;;;;;;;5.57;1.20;;;13.50;38.60;;;;;;5053211;28;20041;-65
2021/03/19 12:31:03;;;;;;;5.57;1.50;;;13.30;38.70;;;;;;5052522;28;20040;-66
2021/03/19 12:33:37;;;;;;;2.92;1.10;;;13.10;38.60;;;;;;5053653;28;20045;-67
2021/03/19 12:36:05;;;;;;;3.60;1.20;;;12.90;38.90;;;;;;5053219;28;20044;-65
2021/03/19 12:38:31;;;;;;;4.50;1.15;;;12.60;39.00;;;;;;5017922;28;20568;-65
2021/03/19 12:40:58;;;;;;;5.05;1.75;;;12.30;39.30;;;;;;5051358;28;20071;-65
2021/03/19 12:43:24;;;;;;;7.65;1.38;;;12.10;39.70;;;;;;5052154;28;20080;-64
2021/03/19 12:45:50;;;;;;;4.15;1.20;;;11.80;39.40;;;;;;5052677;28;20049;-61
2021/03/19 12:48:16;;;;;;;8.68;1.80;;;11.70;40.40;;;;;;5053532;28;20066;-61
2021/03/19 12:50:42;;;;;;;6.20;1.40;;;12.00;41.30;;;;;;5034915;28;20124;-61
2021/03/19 12:53:13;;;;;;;6.47;1.70;;;12.40;41.20;;;;;;5034470;28;20171;-61
2021/03/19 12:55:39;;;;;;;5.38;1.10;;;12.60;39.80;;;;;;5053350;28;20086;-62
2021/03/19 12:58:05;;;;;;;3.72;1.17;;;12.30;39.30;;;;;;5053045;28;20044;-63
2021/03/19 13:00:34;;;;;;;4.13;1.30;;;11.90;39.10;;;;;;5052357;28;20045;-61
2021/03/19 13:03:00;;;;;;;3.13;1.10;;;11.50;39.70;;;;;;5035256;28;20405;-61
2021/03/19 13:05:27;;;;;;;2.90;1.10;;;11.30;40.50;;;;;;5034871;28;20550;-61
2021/03/19 13:07:54;;;;;;;4.88;1.33;;;11.30;41.60;;;;;;5035202;28;20512;-61
2021/03/19 13:10:21;;;;;;;3.95;1.30;;;11.50;42.30;;;;;;5052695;28;20037;-61
2021/03/19 13:12:47;;;;;;;5.47;1.38;;;11.70;42.10;;;;;;5034509;28;20025;-61
2021/03/19 13:15:16;;;;;;;3.95;1.13;;;11.80;41.20;;;;;;5034980;28;20037;-61
2021/03/19 13:17:42;;;;;;;3.90;1.20;;;11.70;41.30;;;;;;5052522;28;20104;-62
2021/03/19 13:20:09;;;;;;;3.60;1.25;;;11.50;41.20;;;;;;5052348;28;20071;-61
2021/03/19 13:22:36;;;;;;;5.15;1.40;;;11.20;41.20;;;;;;5052168;28;20041;-61